»·PEaware :: DAL320 KBUR-KLAS

DAL320 :: KBUR-KLAS

FLIGHT INFORMATION

Flight Status: Arrived
Operator:
Delta Air Lines
More flights by this operator :: More flights under this callsign
Pilot: Erik K. (18332)
Aircraft: BOEING 737-800
(B738)
More flights by this aircraft type
Origin: KBUR Bob Hope-Burbank
United States
Destination: KLAS McCarran Intl
United States
More flights between these airports :: More routes between these airports
Route: +SLAPP1 MISEN KEPEC6
File this flight plan on PilotEdge
Remarks: I 5 RATING
Altitude:
(Current/Filed)
27,000ft
Speed:
(Current/Filed)
320kts
Departed: 12-Oct-18 08:00 PM
Arrived: 12-Oct-18 08:54 PM
Distance/Time
Traveled:
194nm/0:54
Distance/Time
To Go:
Arrived

Flight Plot

Page will automatically refresh every two minutes.

Flight plan parsing failed; only flown route is shown


Map Options




Map Legend


Flown Route
Filed Route
Departure Airport
Arrival Airport
Navaid (VOR, NDB)
Fix

Horizontal Profiles

Position Reports

Time Latitude Longitude Heading Altitude Ground
Speed
12-Oct-18 19:39 34.197163 -118.351485 271 785ft 0kts
12-Oct-18 19:40 34.197163 -118.351485 271 785ft 0kts
12-Oct-18 19:41 34.197163 -118.351485 271 785ft 0kts
12-Oct-18 19:42 34.197163 -118.351485 271 785ft 0kts
12-Oct-18 19:43 34.197163 -118.351485 271 785ft 0kts
12-Oct-18 19:44 34.197163 -118.351485 271 785ft 0kts
12-Oct-18 19:45 34.197163 -118.351485 271 785ft 0kts
12-Oct-18 19:46 34.197163 -118.351485 271 785ft 0kts
12-Oct-18 19:47 34.197163 -118.351485 271 785ft 0kts
12-Oct-18 19:48 34.197163 -118.351485 271 785ft 0kts
12-Oct-18 19:49 34.197163 -118.351485 271 785ft 0kts
12-Oct-18 19:50 34.197163 -118.351485 271 785ft 0kts
12-Oct-18 19:51 34.197163 -118.351485 271 785ft 0kts
12-Oct-18 19:52 34.197169 -118.351840 271 785ft 6kts
12-Oct-18 19:53 34.197922 -118.355008 329 785ft 14kts
12-Oct-18 19:54 34.202889 -118.356492 347 785ft 21kts
12-Oct-18 19:55 34.209252 -118.358252 347 785ft 14kts
12-Oct-18 19:56 34.211309 -118.358823 341 785ft 0kts
12-Oct-18 19:57 34.211309 -118.358823 341 785ft 0kts
12-Oct-18 19:58 34.211309 -118.358823 341 785ft 0kts
12-Oct-18 19:59 34.211309 -118.358823 341 785ft 0kts
12-Oct-18 20:00 34.211309 -118.358823 341 785ft 0kts
12-Oct-18 20:01 34.211781 -118.360117 217 784ft 10kts
12-Oct-18 20:02 34.198512 -118.356646 167 785ft 139kts
12-Oct-18 20:03 34.151257 -118.355068 212 2261ft 217kts
12-Oct-18 20:04 34.101493 -118.410039 222 3896ft 264kts
12-Oct-18 20:05 34.051191 -118.469716 222 3894ft 259kts
12-Oct-18 20:06 34.000125 -118.527959 222 3890ft 258kts
12-Oct-18 20:07 33.947556 -118.586201 222 3896ft 259kts
12-Oct-18 20:08 33.915173 -118.655457 277 3902ft 264kts
12-Oct-18 20:09 33.967281 -118.706769 2 3892ft 275kts
12-Oct-18 20:10 34.041676 -118.689419 11 3878ft 277kts
12-Oct-18 20:11 34.117223 -118.670486 11 6793ft 286kts
12-Oct-18 20:12 34.194209 -118.652762 11 9455ft 295kts
12-Oct-18 20:13 34.255827 -118.597579 48 11825ft 297kts
12-Oct-18 20:14 34.312420 -118.525498 48 12910ft 303kts
12-Oct-18 20:15 34.369128 -118.453087 48 12908ft 303kts
12-Oct-18 20:16 34.427876 -118.377868 48 13299ft 321kts
12-Oct-18 20:17 34.465049 -118.289364 69 15049ft 331kts
12-Oct-18 20:18 34.499884 -118.190249 69 15535ft 377kts
12-Oct-18 20:19 34.542106 -118.068188 69 16339ft 405kts
12-Oct-18 20:20 34.585130 -117.943566 69 18116ft 400kts
12-Oct-18 20:21 34.627277 -117.821041 70 20083ft 391kts
12-Oct-18 20:22 34.668010 -117.702212 70 22197ft 375kts
12-Oct-18 20:23 34.704852 -117.594404 71 24330ft 352kts
12-Oct-18 20:24 34.745819 -117.491352 60 26241ft 337kts
12-Oct-18 20:25 34.796320 -117.395034 60 26949ft 353kts
12-Oct-18 20:26 34.850879 -117.290792 60 26937ft 384kts
12-Oct-18 20:27 34.909927 -117.177771 60 26922ft 409kts
12-Oct-18 20:28 34.971847 -117.058907 59 26906ft 425kts
12-Oct-18 20:29 35.035939 -116.935497 59 26904ft 437kts
12-Oct-18 20:30 35.101266 -116.809302 59 26918ft 445kts
12-Oct-18 20:31 35.166497 -116.682826 60 26931ft 450kts
12-Oct-18 20:32 35.233264 -116.552908 60 26943ft 454kts
12-Oct-18 20:33 35.299961 -116.422649 59 26943ft 454kts
12-Oct-18 20:34 35.366237 -116.292737 60 26945ft 456kts
12-Oct-18 20:35 35.433170 -116.161061 60 26945ft 460kts
12-Oct-18 20:36 35.500701 -116.027699 60 26945ft 462kts
12-Oct-18 20:37 35.568419 -115.893450 60 26946ft 464kts
12-Oct-18 20:38 35.636287 -115.758383 60 26961ft 466kts
12-Oct-18 20:39 35.710065 -115.633467 48 24719ft 428kts
12-Oct-18 20:40 35.809174 -115.573229 9 21592ft 392kts
12-Oct-18 20:41 35.913720 -115.566078 4 18296ft 367kts
12-Oct-18 20:42 35.990484 -115.506488 65 15055ft 336kts
12-Oct-18 20:43 36.023644 -115.402435 68 11791ft 326kts
12-Oct-18 20:44 36.027552 -115.297097 95 8611ft 321kts
12-Oct-18 20:45 36.018803 -115.190752 94 5573ft 308kts
12-Oct-18 20:46 36.012066 -115.096647 94 4940ft 241kts
12-Oct-18 20:47 36.007644 -115.028057 92 4936ft 168kts
12-Oct-18 20:48 36.011387 -114.973355 71 4933ft 159kts
12-Oct-18 20:49 36.024297 -114.922119 71 4103ft 154kts
12-Oct-18 20:50 36.055781 -114.908052 326 3223ft 151kts
12-Oct-18 20:51 36.073735 -114.956204 280 3688ft 161kts
12-Oct-18 20:52 36.074054 -115.012025 267 3973ft 164kts
12-Oct-18 20:53 36.073755 -115.064037 271 3014ft 145kts
12-Oct-18 20:54 36.073676 -115.112214 272 2515ft 145kts
12-Oct-18 20:55 36.074050 -115.148941 292 2189ft 42kts
12-Oct-18 20:56 36.074781 -115.150664 304 2189ft 0kts
12-Oct-18 20:57 36.074781 -115.150664 304 2189ft 0kts
12-Oct-18 20:58 36.075245 -115.151206 328 2189ft 13kts
12-Oct-18 20:59 36.078977 -115.151089 4 2189ft 13kts
12-Oct-18 21:00 36.082008 -115.151595 334 2189ft 5kts
12-Oct-18 21:01 36.082421 -115.151411 38 2189ft 0kts
12-Oct-18 21:02 36.082421 -115.151411 38 2189ft 0kts
12-Oct-18 21:03 36.082421 -115.151411 38 2189ft 0kts
12-Oct-18 21:04 36.082421 -115.151411 38 2189ft 0kts

Navigation Log

Ident Type
Flight plan parsing failed, navigation log unavailable